createdAt,value
2023-01-31T00:01:47.594Z,10.40
2023-01-31T00:04:51.841Z,10.80
2023-01-31T00:07:54.717Z,9.57
2023-01-31T00:11:01.202Z,15.48
2023-01-31T00:14:05.764Z,9.07
2023-01-31T00:17:08.601Z,9.18
2023-01-31T00:20:13.228Z,8.80
2023-01-31T00:23:16.947Z,8.02
2023-01-31T00:26:23.102Z,8.52
2023-01-31T00:29:26.291Z,7.68
2023-01-31T00:32:29.089Z,6.90
2023-01-31T00:35:32.316Z,10.35
2023-01-31T00:38:36.054Z,8.88
2023-01-31T00:41:40.813Z,8.88
2023-01-31T00:44:43.702Z,9.90
2023-01-31T00:47:46.562Z,9.35
2023-01-31T00:50:49.443Z,9.85
2023-01-31T00:53:52.791Z,9.85
2023-01-31T00:56:57.243Z,8.45
2023-01-31T01:00:00.145Z,8.43
2023-01-31T01:03:03.716Z,10.95
2023-01-31T01:06:07.970Z,8.50
2023-01-31T01:09:10.849Z,8.07
2023-01-31T01:12:15.205Z,9.00
2023-01-31T01:15:18.601Z,7.65
2023-01-31T01:18:21.681Z,8.18
2023-01-31T01:21:26.239Z,8.63
2023-01-31T01:24:29.082Z,7.90
2023-01-31T01:27:34.376Z,7.18
2023-01-31T01:30:38.947Z,6.15
2023-01-31T01:33:42.375Z,6.20
2023-01-31T01:36:47.900Z,8.45
2023-01-31T01:39:53.257Z,10.65
2023-01-31T01:42:57.671Z,7.97
2023-01-31T01:46:00.737Z,6.90
2023-01-31T01:49:07.070Z,7.53
2023-01-31T01:52:12.554Z,7.75
2023-01-31T01:55:24.694Z,6.85
2023-01-31T01:58:33.937Z,7.00
2023-01-31T02:01:38.567Z,6.63
2023-01-31T02:04:50.177Z,7.30
2023-01-31T02:07:53.306Z,7.70
2023-01-31T02:11:01.242Z,7.72
2023-01-31T02:14:09.696Z,6.53
2023-01-31T02:17:14.003Z,9.52
2023-01-31T02:20:49.170Z,6.32
2023-01-31T02:24:31.070Z,9.98
2023-01-31T02:28:15.926Z,5.25
2023-01-31T02:31:56.043Z,4.82
2023-01-31T02:35:06.733Z,7.55
2023-01-31T02:38:25.447Z,4.55
2023-01-31T02:41:33.257Z,6.60
2023-01-31T02:45:04.385Z,6.80
2023-01-31T02:48:16.994Z,6.40
2023-01-31T02:51:34.067Z,5.45
2023-01-31T02:54:52.595Z,5.55
2023-01-31T02:57:57.901Z,5.88
2023-01-31T03:01:04.933Z,6.90
2023-01-31T03:04:10.125Z,4.82
2023-01-31T03:07:26.509Z,4.78
2023-01-31T03:10:46.793Z,4.53
2023-01-31T03:13:59.449Z,4.60
2023-01-31T03:17:31.843Z,4.60
2023-01-31T03:20:40.466Z,6.18
2023-01-31T03:23:52.975Z,4.38
2023-01-31T03:26:58.258Z,5.70
2023-01-31T03:30:06.576Z,4.93
2023-01-31T03:33:14.780Z,5.32
2023-01-31T03:36:26.848Z,6.97
2023-01-31T03:39:41.003Z,4.93
2023-01-31T03:42:49.251Z,5.93
2023-01-31T03:46:01.086Z,5.72
2023-01-31T03:49:08.974Z,5.68
2023-01-31T03:52:15.012Z,6.05
2023-01-31T03:55:24.183Z,6.28
2023-01-31T03:58:33.074Z,5.90
2023-01-31T04:01:40.063Z,4.10
2023-01-31T04:04:48.274Z,5.15
2023-01-31T04:07:51.731Z,6.60
2023-01-31T04:11:01.498Z,5.90
2023-01-31T04:14:04.355Z,4.78
2023-01-31T04:17:07.226Z,4.80
2023-01-31T04:20:13.104Z,4.93
2023-01-31T04:23:16.000Z,4.13
2023-01-31T04:26:20.282Z,3.65
2023-01-31T04:29:23.124Z,5.85
2023-01-31T04:32:26.522Z,5.00
2023-01-31T04:35:29.438Z,4.53
2023-01-31T04:38:32.286Z,3.50
2023-01-31T04:41:36.582Z,4.22
2023-01-31T04:44:39.490Z,3.70
2023-01-31T04:47:42.330Z,3.80
2023-01-31T04:50:45.162Z,6.00
2023-01-31T04:53:48.255Z,4.13
2023-01-31T04:56:52.453Z,4.80
2023-01-31T04:59:55.296Z,4.13
2023-01-31T05:02:58.208Z,4.07
2023-01-31T05:06:01.163Z,3.10
2023-01-31T05:09:04.247Z,4.13
2023-01-31T05:12:08.967Z,4.10
2023-01-31T05:15:12.759Z,7.03
2023-01-31T05:18:15.612Z,5.80
2023-01-31T05:21:18.732Z,3.88
2023-01-31T05:24:21.819Z,4.65
2023-01-31T05:27:26.608Z,3.67
2023-01-31T05:30:29.591Z,3.58
2023-01-31T05:33:33.392Z,4.25
2023-01-31T05:36:36.275Z,5.13
2023-01-31T05:39:39.190Z,4.32
2023-01-31T05:42:43.532Z,3.20
2023-01-31T05:45:46.565Z,2.60
2023-01-31T05:48:49.435Z,3.33
2023-01-31T05:51:52.248Z,5.43
2023-01-31T05:54:55.295Z,4.97
2023-01-31T05:58:01.448Z,4.78
2023-01-31T06:01:04.484Z,4.10
2023-01-31T06:04:07.390Z,4.75
2023-01-31T06:07:10.318Z,3.50
2023-01-31T06:10:13.753Z,4.28
2023-01-31T06:13:18.096Z,4.28
2023-01-31T06:16:20.900Z,3.42
2023-01-31T06:19:25.420Z,3.25
2023-01-31T06:22:28.327Z,3.13
2023-01-31T06:25:31.967Z,2.92
2023-01-31T06:28:37.641Z,3.75
2023-01-31T06:31:40.628Z,3.63
2023-01-31T06:34:43.735Z,4.72
2023-01-31T06:37:46.740Z,2.80
2023-01-31T06:40:49.501Z,3.65
2023-01-31T06:43:53.709Z,3.47
2023-01-31T06:46:56.534Z,3.30
2023-01-31T06:50:00.045Z,4.03
2023-01-31T06:53:02.954Z,3.30
2023-01-31T06:56:06.591Z,3.00
2023-01-31T06:59:10.779Z,3.75
2023-01-31T07:02:13.883Z,3.80
2023-01-31T07:05:16.905Z,4.05
2023-01-31T07:08:19.767Z,4.25
2023-01-31T07:11:22.629Z,3.05
2023-01-31T07:14:27.157Z,3.30
2023-01-31T07:17:30.217Z,3.47
2023-01-31T07:20:33.529Z,2.72
2023-01-31T07:23:36.428Z,3.88
2023-01-31T07:26:39.639Z,3.13
2023-01-31T07:29:44.751Z,4.97
2023-01-31T07:32:47.766Z,2.70
2023-01-31T07:35:51.275Z,2.47
2023-01-31T07:38:55.761Z,6.10
2023-01-31T07:41:58.630Z,4.28
2023-01-31T07:45:20.959Z,5.45
2023-01-31T07:48:25.997Z,3.75
2023-01-31T07:51:28.830Z,3.63
2023-01-31T07:54:32.053Z,4.32
2023-01-31T07:57:35.093Z,2.85
2023-01-31T08:00:56.877Z,3.35
2023-01-31T08:04:10.782Z,4.18
2023-01-31T08:07:21.395Z,4.25
2023-01-31T08:10:24.265Z,3.70
2023-01-31T08:13:27.872Z,4.05
2023-01-31T08:16:32.848Z,3.70
2023-01-31T08:19:35.883Z,3.20
2023-01-31T08:22:38.865Z,3.20
2023-01-31T08:25:41.931Z,5.50
2023-01-31T08:28:45.660Z,3.45
2023-01-31T08:31:52.344Z,3.78
2023-01-31T08:34:55.248Z,5.60
2023-01-31T08:38:14.253Z,3.42
2023-01-31T08:41:20.589Z,3.38
2023-01-31T08:44:23.772Z,3.05
2023-01-31T08:47:29.035Z,8.00
2023-01-31T08:50:33.248Z,8.05
2023-01-31T08:53:38.508Z,10.23
2023-01-31T08:56:41.363Z,8.65
2023-01-31T08:59:44.334Z,10.38
2023-01-31T09:02:55.055Z,8.30
2023-01-31T09:05:59.939Z,11.50
2023-01-31T09:09:03.475Z,8.32
2023-01-31T09:12:06.842Z,15.77
2023-01-31T09:15:12.908Z,14.07
2023-01-31T09:18:17.178Z,9.40
2023-01-31T09:21:22.117Z,12.50
2023-01-31T09:24:25.187Z,11.88
2023-01-31T09:27:28.993Z,13.27
2023-01-31T09:30:32.204Z,17.65
2023-01-31T09:33:37.260Z,17.02
2023-01-31T09:36:40.141Z,8.40
2023-01-31T09:39:43.451Z,13.90
2023-01-31T09:42:48.415Z,11.70
2023-01-31T09:45:55.863Z,11.27
2023-01-31T09:49:05.875Z,11.98
2023-01-31T09:52:12.085Z,11.35
2023-01-31T09:55:17.922Z,8.98
2023-01-31T09:58:32.362Z,9.50
2023-01-31T10:01:43.738Z,6.40
2023-01-31T10:05:06.065Z,12.85
2023-01-31T10:08:17.327Z,15.25
2023-01-31T10:11:30.679Z,14.63
2023-01-31T10:14:37.425Z,12.57
2023-01-31T10:17:44.480Z,15.00
2023-01-31T10:20:52.637Z,10.57
2023-01-31T10:24:01.734Z,12.95
2023-01-31T10:27:13.582Z,13.90
2023-01-31T10:30:20.983Z,10.77
2023-01-31T10:33:32.438Z,13.93
2023-01-31T10:36:41.671Z,9.23
2023-01-31T10:39:49.372Z,11.68
2023-01-31T10:42:54.999Z,13.60
2023-01-31T10:46:01.315Z,10.05
2023-01-31T10:49:04.455Z,12.57
2023-01-31T10:52:28.450Z,15.30
2023-01-31T10:55:50.612Z,9.57
2023-01-31T10:58:53.716Z,11.82
2023-01-31T11:01:56.684Z,9.90
2023-01-31T11:05:01.034Z,10.52
2023-01-31T11:08:20.475Z,14.57
2023-01-31T11:11:25.491Z,10.95
2023-01-31T11:14:29.961Z,10.85
2023-01-31T11:17:37.474Z,12.05
2023-01-31T11:20:47.807Z,8.57
2023-01-31T11:23:53.005Z,9.50
2023-01-31T11:27:00.954Z,12.50
2023-01-31T11:30:05.686Z,10.95
2023-01-31T11:33:09.074Z,12.48
2023-01-31T11:36:13.963Z,11.30
2023-01-31T11:39:27.479Z,6.65
2023-01-31T11:42:30.411Z,11.82
2023-01-31T11:45:35.624Z,7.28
2023-01-31T11:48:42.589Z,8.20
2023-01-31T11:51:45.920Z,8.20
2023-01-31T11:54:55.480Z,8.68
2023-01-31T11:58:00.906Z,8.88
2023-01-31T12:01:09.498Z,7.05
2023-01-31T12:04:18.097Z,4.32
2023-01-31T12:07:25.897Z,8.68
2023-01-31T12:10:34.108Z,6.18
2023-01-31T12:13:48.013Z,5.40
2023-01-31T12:16:51.786Z,8.20
2023-01-31T12:20:26.267Z,9.77
2023-01-31T12:23:39.456Z,5.93
2023-01-31T12:26:50.105Z,7.00
2023-01-31T12:30:09.259Z,8.07
2023-01-31T12:33:27.507Z,8.55
2023-01-31T12:36:49.567Z,8.93
2023-01-31T12:40:11.865Z,7.53
2023-01-31T12:43:44.157Z,15.23
2023-01-31T12:47:10.557Z,6.40
2023-01-31T12:50:37.455Z,5.63
2023-01-31T12:53:51.197Z,6.55
2023-01-31T12:57:05.822Z,8.02
2023-01-31T13:00:29.275Z,7.90
2023-01-31T13:04:04.636Z,4.05
2023-01-31T13:07:13.436Z,7.00
2023-01-31T13:10:30.939Z,5.45
2023-01-31T13:13:39.911Z,3.33
2023-01-31T13:16:46.674Z,3.83
2023-01-31T13:19:53.915Z,7.35
2023-01-31T13:23:00.238Z,6.53
2023-01-31T13:26:10.646Z,7.90
2023-01-31T13:29:19.032Z,4.55
2023-01-31T13:32:29.555Z,5.25
2023-01-31T13:35:37.122Z,4.03
2023-01-31T13:38:43.021Z,6.45
2023-01-31T13:41:46.024Z,4.18
2023-01-31T13:44:50.090Z,7.75
2023-01-31T13:48:00.306Z,2.72
2023-01-31T13:51:11.467Z,6.70
2023-01-31T13:54:20.638Z,5.13
2023-01-31T13:57:27.905Z,8.05
2023-01-31T14:00:40.233Z,4.20
2023-01-31T14:04:21.742Z,6.38
2023-01-31T14:07:26.135Z,9.77
2023-01-31T14:10:37.228Z,3.50
2023-01-31T14:13:44.986Z,3.97
2023-01-31T14:16:51.702Z,5.18
2023-01-31T14:20:07.310Z,7.75
2023-01-31T14:23:32.735Z,6.93
2023-01-31T14:26:51.117Z,7.88
2023-01-31T14:29:59.798Z,6.50
2023-01-31T14:33:29.097Z,6.25
2023-01-31T14:36:52.730Z,4.07
2023-01-31T14:40:16.319Z,5.63
2023-01-31T14:43:41.377Z,3.90
2023-01-31T14:47:08.207Z,6.93
2023-01-31T14:50:36.215Z,7.70
2023-01-31T14:54:05.259Z,7.78
2023-01-31T14:57:19.843Z,5.43
2023-01-31T15:00:26.891Z,7.03
2023-01-31T15:03:32.872Z,19.33
2023-01-31T15:06:40.867Z,4.97
2023-01-31T15:09:43.762Z,5.35
2023-01-31T15:13:00.648Z,5.68
2023-01-31T15:16:06.050Z,4.82
2023-01-31T15:19:15.324Z,6.95
2023-01-31T15:22:19.844Z,5.20
2023-01-31T15:25:29.795Z,8.57
2023-01-31T15:28:38.079Z,8.63
2023-01-31T15:31:45.467Z,8.32
2023-01-31T15:34:54.486Z,4.10
2023-01-31T15:38:02.725Z,5.00
2023-01-31T15:41:22.386Z,5.55
2023-01-31T15:44:29.240Z,6.15
2023-01-31T15:47:32.855Z,2.92
2023-01-31T15:50:36.430Z,4.22
2023-01-31T15:53:39.643Z,6.78
2023-01-31T15:56:43.323Z,4.97
2023-01-31T15:59:49.107Z,3.03
2023-01-31T16:03:00.495Z,4.10
2023-01-31T16:06:04.335Z,3.38
2023-01-31T16:09:10.599Z,3.28
2023-01-31T16:12:15.252Z,2.30
2023-01-31T16:15:23.412Z,2.83
2023-01-31T16:18:26.533Z,4.93
2023-01-31T16:21:32.864Z,4.38
2023-01-31T16:24:35.675Z,2.65
2023-01-31T16:27:45.293Z,5.03
2023-01-31T16:30:49.765Z,4.63
2023-01-31T16:33:57.370Z,4.97
2023-01-31T16:37:03.347Z,5.38
2023-01-31T16:40:19.853Z,11.00
2023-01-31T16:43:25.986Z,11.70
2023-01-31T16:46:40.160Z,7.78
2023-01-31T16:49:43.355Z,3.85
2023-01-31T16:52:47.542Z,6.63
2023-01-31T16:56:18.613Z,7.90
2023-01-31T16:59:50.819Z,7.07
2023-01-31T17:02:57.681Z,14.77
2023-01-31T17:06:00.597Z,10.27
2023-01-31T17:09:05.518Z,12.20
2023-01-31T17:12:18.142Z,5.78
2023-01-31T17:15:22.100Z,12.98
2023-01-31T17:18:26.468Z,7.55
2023-01-31T17:21:29.913Z,9.80
2023-01-31T17:24:33.090Z,8.65
2023-01-31T17:27:35.889Z,6.32
2023-01-31T17:30:41.577Z,4.47
2023-01-31T17:33:45.831Z,5.00
2023-01-31T17:36:48.759Z,7.72
2023-01-31T17:39:51.714Z,3.35
2023-01-31T17:42:57.921Z,6.60
2023-01-31T17:46:00.934Z,4.55
2023-01-31T17:49:05.185Z,5.85
2023-01-31T17:52:08.038Z,3.75
2023-01-31T17:55:11.822Z,6.13
2023-01-31T17:58:15.745Z,6.53
2023-01-31T18:01:18.904Z,6.57
2023-01-31T18:04:23.195Z,7.00
2023-01-31T18:07:26.122Z,6.05
2023-01-31T18:10:29.081Z,6.53
2023-01-31T18:13:32.106Z,4.28
2023-01-31T18:16:34.934Z,4.82
2023-01-31T18:19:39.534Z,4.13
2023-01-31T18:22:42.380Z,5.95
2023-01-31T18:25:46.784Z,7.57
2023-01-31T18:28:49.986Z,7.35
2023-01-31T18:31:56.370Z,5.25
2023-01-31T18:35:00.789Z,12.10
2023-01-31T18:38:06.635Z,5.45
2023-01-31T18:41:10.796Z,3.95
2023-01-31T18:44:13.713Z,7.15
2023-01-31T18:47:17.882Z,3.90
2023-01-31T18:50:22.306Z,7.30
2023-01-31T18:53:25.394Z,6.18
2023-01-31T18:56:28.526Z,5.80
2023-01-31T18:59:31.382Z,8.82
2023-01-31T19:02:34.298Z,6.93
2023-01-31T19:05:39.394Z,5.57
2023-01-31T19:08:43.013Z,7.97
2023-01-31T19:11:46.123Z,6.57
2023-01-31T19:14:49.427Z,7.32
2023-01-31T19:17:52.684Z,6.53
2023-01-31T19:20:57.097Z,5.85
2023-01-31T19:24:01.766Z,2.58
2023-01-31T19:27:04.662Z,4.90
2023-01-31T19:30:08.829Z,5.28
2023-01-31T19:33:12.587Z,4.68
2023-01-31T19:36:18.731Z,3.33
2023-01-31T19:39:21.707Z,5.72
2023-01-31T19:42:25.551Z,4.47
2023-01-31T19:45:28.538Z,6.70
2023-01-31T19:48:32.190Z,9.57
2023-01-31T19:51:38.001Z,4.32
2023-01-31T19:54:41.370Z,4.50
2023-01-31T19:57:44.324Z,6.30
2023-01-31T20:00:48.707Z,11.90
2023-01-31T20:03:51.768Z,6.90
2023-01-31T20:06:56.026Z,6.03
2023-01-31T20:09:59.018Z,6.38
2023-01-31T20:13:02.589Z,5.95
2023-01-31T20:16:07.273Z,9.27
2023-01-31T20:19:10.100Z,8.38
2023-01-31T20:22:15.592Z,9.70
2023-01-31T20:25:18.461Z,4.55
2023-01-31T20:28:21.407Z,13.52
2023-01-31T20:31:24.616Z,13.70
2023-01-31T20:34:27.613Z,8.55
2023-01-31T20:37:33.312Z,5.38
2023-01-31T20:40:37.364Z,12.63
2023-01-31T20:43:40.182Z,8.93
2023-01-31T20:46:43.004Z,11.45
2023-01-31T20:49:45.776Z,9.48
2023-01-31T20:52:51.381Z,8.82
2023-01-31T20:55:59.715Z,12.65
2023-01-31T20:59:02.771Z,11.85
2023-01-31T21:02:05.760Z,7.95
2023-01-31T21:05:09.154Z,9.85
2023-01-31T21:08:13.367Z,12.90
2023-01-31T21:11:16.334Z,9.93
2023-01-31T21:14:19.207Z,9.10
2023-01-31T21:17:37.846Z,6.38
2023-01-31T21:20:42.307Z,10.13
2023-01-31T21:23:46.504Z,9.73
2023-01-31T21:26:49.427Z,7.90
2023-01-31T21:29:52.395Z,6.15
2023-01-31T21:32:55.292Z,8.60
2023-01-31T21:36:00.649Z,8.93
2023-01-31T21:39:05.216Z,10.23
2023-01-31T21:42:18.854Z,11.25
2023-01-31T21:45:39.352Z,6.18
2023-01-31T21:48:43.174Z,9.00
2023-01-31T21:51:46.107Z,7.38
2023-01-31T21:54:50.387Z,7.82
2023-01-31T21:57:53.566Z,8.95
2023-01-31T22:00:56.590Z,9.63
2023-01-31T22:04:00.216Z,10.35
2023-01-31T22:07:03.064Z,6.50
2023-01-31T22:10:08.227Z,5.03
2023-01-31T22:13:11.052Z,10.02
2023-01-31T22:16:15.839Z,4.53
2023-01-31T22:19:18.899Z,6.47
2023-01-31T22:22:21.746Z,7.30
2023-01-31T22:25:26.029Z,5.32
2023-01-31T22:28:31.101Z,7.28
2023-01-31T22:31:34.425Z,9.15
2023-01-31T22:34:37.925Z,10.43
2023-01-31T22:37:42.164Z,6.55
2023-01-31T22:40:47.068Z,14.55
2023-01-31T22:43:51.440Z,6.88
2023-01-31T22:46:54.851Z,8.48
2023-01-31T22:49:57.831Z,10.73
2023-01-31T22:53:00.762Z,6.68
2023-01-31T22:56:07.430Z,7.55
2023-01-31T22:59:10.664Z,5.40
2023-01-31T23:02:13.467Z,12.65
2023-01-31T23:05:16.280Z,13.38
2023-01-31T23:08:19.164Z,9.20
2023-01-31T23:11:24.526Z,9.20
2023-01-31T23:14:28.012Z,7.07
2023-01-31T23:17:39.954Z,7.32
2023-01-31T23:20:43.282Z,7.60
2023-01-31T23:23:47.342Z,6.63
2023-01-31T23:26:51.590Z,15.52
2023-01-31T23:29:54.443Z,7.60
2023-01-31T23:32:57.263Z,9.15
2023-01-31T23:36:00.124Z,7.22
2023-01-31T23:39:03.164Z,5.90
2023-01-31T23:42:07.411Z,7.57
2023-01-31T23:45:11.358Z,4.50
2023-01-31T23:48:14.378Z,9.50
2023-01-31T23:51:17.225Z,6.88
2023-01-31T23:54:20.038Z,8.55
2023-01-31T23:57:24.335Z,6.93
